sensor_id;sensor_type;location;lat;lon;timestamp;temperature;humidity
46400;DHT22;32104;50.838;4.388;2023-04-24T00:00:12;10.60;99.90
46400;DHT22;32104;50.838;4.388;2023-04-24T00:02:59;10.50;99.90
46400;DHT22;32104;50.838;4.388;2023-04-24T00:05:25;10.50;99.90
46400;DHT22;32104;50.838;4.388;2023-04-24T00:07:50;10.50;99.90
46400;DHT22;32104;50.838;4.388;2023-04-24T00:10:19;10.50;99.90
46400;DHT22;32104;50.838;4.388;2023-04-24T00:12:56;10.50;99.90
46400;DHT22;32104;50.838;4.388;2023-04-24T00:15:24;10.50;99.90
46400;DHT22;32104;50.838;4.388;2023-04-24T00:17:52;10.40;99.90
46400;DHT22;32104;50.838;4.388;2023-04-24T00:20:18;10.30;99.90
46400;DHT22;32104;50.838;4.388;2023-04-24T00:22:49;10.30;99.90
46400;DHT22;32104;50.838;4.388;2023-04-24T00:25:16;10.20;99.90
46400;DHT22;32104;50.838;4.388;2023-04-24T00:27:47;10.20;99.90
46400;DHT22;32104;50.838;4.388;2023-04-24T00:30:18;10.20;99.90
46400;DHT22;32104;50.838;4.388;2023-04-24T00:32:46;10.20;99.90
46400;DHT22;32104;50.838;4.388;2023-04-24T00:35:15;10.20;99.90
46400;DHT22;32104;50.838;4.388;2023-04-24T00:37:47;10.20;99.90
46400;DHT22;32104;50.838;4.388;2023-04-24T00:40:13;10.20;99.90
46400;DHT22;32104;50.838;4.388;2023-04-24T00:42:39;10.20;99.90
46400;DHT22;32104;50.838;4.388;2023-04-24T00:45:06;10.10;99.90
46400;DHT22;32104;50.838;4.388;2023-04-24T00:50:32;10.00;99.90
46400;DHT22;32104;50.838;4.388;2023-04-24T00:53:18;10.00;99.90
46400;DHT22;32104;50.838;4.388;2023-04-24T00:55:44;10.10;99.90
46400;DHT22;32104;50.838;4.388;2023-04-24T00:58:10;10.10;99.90
46400;DHT22;32104;50.838;4.388;2023-04-24T01:00:38;10.30;99.90
46400;DHT22;32104;50.838;4.388;2023-04-24T01:03:12;10.30;99.90
46400;DHT22;32104;50.838;4.388;2023-04-24T01:05:39;10.30;99.90
46400;DHT22;32104;50.838;4.388;2023-04-24T01:08:05;10.30;99.90
46400;DHT22;32104;50.838;4.388;2023-04-24T01:10:31;10.30;99.90
46400;DHT22;32104;50.838;4.388;2023-04-24T01:12:58;10.20;99.90
46400;DHT22;32104;50.838;4.388;2023-04-24T01:15:26;10.20;99.90
46400;DHT22;32104;50.838;4.388;2023-04-24T01:17:52;10.20;99.90
46400;DHT22;32104;50.838;4.388;2023-04-24T01:20:18;10.00;99.90
46400;DHT22;32104;50.838;4.388;2023-04-24T01:22:47;10.00;99.90
46400;DHT22;32104;50.838;4.388;2023-04-24T01:25:13;10.00;99.90
46400;DHT22;32104;50.838;4.388;2023-04-24T01:27:39;10.00;99.90
46400;DHT22;32104;50.838;4.388;2023-04-24T01:30:05;9.90;99.90
46400;DHT22;32104;50.838;4.388;2023-04-24T01:35:17;9.80;99.90
46400;DHT22;32104;50.838;4.388;2023-04-24T01:37:48;9.80;99.90
46400;DHT22;32104;50.838;4.388;2023-04-24T01:40:32;9.70;99.90
46400;DHT22;32104;50.838;4.388;2023-04-24T01:43:02;9.80;99.90
46400;DHT22;32104;50.838;4.388;2023-04-24T01:45:29;9.80;99.90
46400;DHT22;32104;50.838;4.388;2023-04-24T01:47:59;9.90;99.90
46400;DHT22;32104;50.838;4.388;2023-04-24T01:50:28;9.90;99.90
46400;DHT22;32104;50.838;4.388;2023-04-24T01:52:54;10.00;99.90
46400;DHT22;32104;50.838;4.388;2023-04-24T01:55:20;9.90;99.90
46400;DHT22;32104;50.838;4.388;2023-04-24T01:57:49;9.80;99.90
46400;DHT22;32104;50.838;4.388;2023-04-24T02:00:15;9.80;99.90
46400;DHT22;32104;50.838;4.388;2023-04-24T02:02:48;9.70;99.90
46400;DHT22;32104;50.838;4.388;2023-04-24T02:05:16;9.60;99.90
46400;DHT22;32104;50.838;4.388;2023-04-24T02:07:42;9.70;99.90
46400;DHT22;32104;50.838;4.388;2023-04-24T02:10:09;9.70;99.90
46400;DHT22;32104;50.838;4.388;2023-04-24T02:12:35;9.70;99.90
46400;DHT22;32104;50.838;4.388;2023-04-24T02:15:01;9.80;99.90
46400;DHT22;32104;50.838;4.388;2023-04-24T02:17:30;9.90;99.90
46400;DHT22;32104;50.838;4.388;2023-04-24T02:19:59;9.70;99.90
46400;DHT22;32104;50.838;4.388;2023-04-24T02:22:29;9.60;99.90
46400;DHT22;32104;50.838;4.388;2023-04-24T02:24:55;9.60;99.90
46400;DHT22;32104;50.838;4.388;2023-04-24T02:27:22;9.60;99.90
46400;DHT22;32104;50.838;4.388;2023-04-24T02:29:48;9.70;99.90
46400;DHT22;32104;50.838;4.388;2023-04-24T02:32:14;9.70;99.90
46400;DHT22;32104;50.838;4.388;2023-04-24T02:34:41;9.80;99.90
46400;DHT22;32104;50.838;4.388;2023-04-24T02:37:07;9.80;99.90
46400;DHT22;32104;50.838;4.388;2023-04-24T02:39:33;9.80;99.90
46400;DHT22;32104;50.838;4.388;2023-04-24T02:42:00;9.80;99.90
46400;DHT22;32104;50.838;4.388;2023-04-24T02:44:28;9.70;99.90
46400;DHT22;32104;50.838;4.388;2023-04-24T02:46:56;9.70;99.90
46400;DHT22;32104;50.838;4.388;2023-04-24T02:49:22;9.70;99.90
46400;DHT22;32104;50.838;4.388;2023-04-24T02:51:48;9.60;99.90
46400;DHT22;32104;50.838;4.388;2023-04-24T02:54:19;9.70;99.90
46400;DHT22;32104;50.838;4.388;2023-04-24T02:56:45;9.70;99.90
46400;DHT22;32104;50.838;4.388;2023-04-24T02:59:11;9.60;99.90
46400;DHT22;32104;50.838;4.388;2023-04-24T03:01:39;9.70;99.90
46400;DHT22;32104;50.838;4.388;2023-04-24T03:04:04;9.70;99.90
46400;DHT22;32104;50.838;4.388;2023-04-24T03:06:32;9.70;99.90
46400;DHT22;32104;50.838;4.388;2023-04-24T03:09:00;9.70;99.90
46400;DHT22;32104;50.838;4.388;2023-04-24T03:11:26;9.70;99.90
46400;DHT22;32104;50.838;4.388;2023-04-24T03:13:51;9.70;99.90
46400;DHT22;32104;50.838;4.388;2023-04-24T03:16:17;9.70;99.90
46400;DHT22;32104;50.838;4.388;2023-04-24T03:18:45;9.70;99.90
46400;DHT22;32104;50.838;4.388;2023-04-24T03:21:11;9.50;99.90
46400;DHT22;32104;50.838;4.388;2023-04-24T03:23:36;9.50;99.90
46400;DHT22;32104;50.838;4.388;2023-04-24T03:26:02;9.50;99.90
46400;DHT22;32104;50.838;4.388;2023-04-24T03:28:28;9.50;99.90
46400;DHT22;32104;50.838;4.388;2023-04-24T03:30:54;9.40;99.90
46400;DHT22;32104;50.838;4.388;2023-04-24T03:33:20;9.50;99.90
46400;DHT22;32104;50.838;4.388;2023-04-24T03:35:46;9.50;99.90
46400;DHT22;32104;50.838;4.388;2023-04-24T03:38:12;9.50;99.90
46400;DHT22;32104;50.838;4.388;2023-04-24T03:40:38;9.50;99.90
46400;DHT22;32104;50.838;4.388;2023-04-24T03:43:03;9.50;99.90
46400;DHT22;32104;50.838;4.388;2023-04-24T03:45:32;9.50;99.90
46400;DHT22;32104;50.838;4.388;2023-04-24T03:48:02;9.40;99.90
46400;DHT22;32104;50.838;4.388;2023-04-24T03:50:30;9.40;99.90
46400;DHT22;32104;50.838;4.388;2023-04-24T03:52:57;9.40;99.90
46400;DHT22;32104;50.838;4.388;2023-04-24T03:55:23;9.40;99.90
46400;DHT22;32104;50.838;4.388;2023-04-24T03:57:49;9.50;99.90
46400;DHT22;32104;50.838;4.388;2023-04-24T04:00:14;9.60;99.90
46400;DHT22;32104;50.838;4.388;2023-04-24T04:02:41;9.50;99.90
46400;DHT22;32104;50.838;4.388;2023-04-24T04:05:06;9.60;99.90
46400;DHT22;32104;50.838;4.388;2023-04-24T04:07:33;9.60;99.90
46400;DHT22;32104;50.838;4.388;2023-04-24T04:10:05;9.70;99.90
46400;DHT22;32104;50.838;4.388;2023-04-24T04:12:33;9.70;99.90
46400;DHT22;32104;50.838;4.388;2023-04-24T04:15:01;9.70;99.90
46400;DHT22;32104;50.838;4.388;2023-04-24T04:17:27;9.90;99.90
46400;DHT22;32104;50.838;4.388;2023-04-24T04:19:54;9.90;99.90
46400;DHT22;32104;50.838;4.388;2023-04-24T04:22:21;9.90;99.90
46400;DHT22;32104;50.838;4.388;2023-04-24T04:24:47;10.00;99.90
46400;DHT22;32104;50.838;4.388;2023-04-24T04:27:19;9.90;99.90
46400;DHT22;32104;50.838;4.388;2023-04-24T04:29:47;9.90;99.90
46400;DHT22;32104;50.838;4.388;2023-04-24T04:32:14;9.90;99.90
46400;DHT22;32104;50.838;4.388;2023-04-24T04:34:40;9.90;99.90
46400;DHT22;32104;50.838;4.388;2023-04-24T04:37:07;9.80;99.90
46400;DHT22;32104;50.838;4.388;2023-04-24T04:39:33;9.80;99.90
46400;DHT22;32104;50.838;4.388;2023-04-24T04:41:59;9.90;99.90
46400;DHT22;32104;50.838;4.388;2023-04-24T04:44:25;9.90;99.90
46400;DHT22;32104;50.838;4.388;2023-04-24T04:46:52;9.90;99.90
46400;DHT22;32104;50.838;4.388;2023-04-24T04:49:21;9.90;99.90
46400;DHT22;32104;50.838;4.388;2023-04-24T04:51:49;9.90;99.90
46400;DHT22;32104;50.838;4.388;2023-04-24T04:54:16;9.70;99.90
46400;DHT22;32104;50.838;4.388;2023-04-24T04:56:41;9.80;99.90
46400;DHT22;32104;50.838;4.388;2023-04-24T04:59:08;9.80;99.90
46400;DHT22;32104;50.838;4.388;2023-04-24T05:01:34;9.80;99.90
46400;DHT22;32104;50.838;4.388;2023-04-24T05:04:02;9.70;99.90
46400;DHT22;32104;50.838;4.388;2023-04-24T05:06:27;9.50;99.90
46400;DHT22;32104;50.838;4.388;2023-04-24T05:08:53;9.50;99.90
46400;DHT22;32104;50.838;4.388;2023-04-24T05:11:22;9.50;99.90
46400;DHT22;32104;50.838;4.388;2023-04-24T05:13:48;9.50;99.90
46400;DHT22;32104;50.838;4.388;2023-04-24T05:16:14;9.50;99.90
46400;DHT22;32104;50.838;4.388;2023-04-24T05:18:40;9.60;99.90
46400;DHT22;32104;50.838;4.388;2023-04-24T05:21:06;9.60;99.90
46400;DHT22;32104;50.838;4.388;2023-04-24T05:23:31;9.60;99.90
46400;DHT22;32104;50.838;4.388;2023-04-24T05:25:57;9.50;99.90
46400;DHT22;32104;50.838;4.388;2023-04-24T05:28:23;9.60;99.90
46400;DHT22;32104;50.838;4.388;2023-04-24T05:30:51;9.60;99.90
46400;DHT22;32104;50.838;4.388;2023-04-24T05:33:17;9.50;99.90
46400;DHT22;32104;50.838;4.388;2023-04-24T05:35:44;9.50;99.90
46400;DHT22;32104;50.838;4.388;2023-04-24T05:38:13;9.50;99.90
46400;DHT22;32104;50.838;4.388;2023-04-24T05:40:45;9.40;99.90
46400;DHT22;32104;50.838;4.388;2023-04-24T05:43:10;9.50;99.90
46400;DHT22;32104;50.838;4.388;2023-04-24T05:45:38;9.50;99.90
46400;DHT22;32104;50.838;4.388;2023-04-24T05:48:04;9.60;99.90
46400;DHT22;32104;50.838;4.388;2023-04-24T05:50:31;9.50;99.90
46400;DHT22;32104;50.838;4.388;2023-04-24T05:52:56;9.50;99.90
46400;DHT22;32104;50.838;4.388;2023-04-24T05:55:30;9.60;99.90
46400;DHT22;32104;50.838;4.388;2023-04-24T05:57:56;9.70;99.90
46400;DHT22;32104;50.838;4.388;2023-04-24T06:00:24;9.70;99.90
46400;DHT22;32104;50.838;4.388;2023-04-24T06:02:51;9.60;99.90
46400;DHT22;32104;50.838;4.388;2023-04-24T06:05:21;9.70;99.90
46400;DHT22;32104;50.838;4.388;2023-04-24T06:07:52;9.50;99.90
46400;DHT22;32104;50.838;4.388;2023-04-24T06:10:22;9.60;99.90
46400;DHT22;32104;50.838;4.388;2023-04-24T06:12:48;9.60;99.90
46400;DHT22;32104;50.838;4.388;2023-04-24T06:15:14;9.60;99.90
46400;DHT22;32104;50.838;4.388;2023-04-24T06:17:42;9.50;99.90
46400;DHT22;32104;50.838;4.388;2023-04-24T06:20:10;9.50;99.90
46400;DHT22;32104;50.838;4.388;2023-04-24T06:22:37;9.40;99.90
46400;DHT22;32104;50.838;4.388;2023-04-24T06:25:05;9.40;99.90
46400;DHT22;32104;50.838;4.388;2023-04-24T06:27:31;9.40;99.90
46400;DHT22;32104;50.838;4.388;2023-04-24T06:30:01;9.50;99.90
46400;DHT22;32104;50.838;4.388;2023-04-24T06:32:30;9.50;99.90
46400;DHT22;32104;50.838;4.388;2023-04-24T06:35:00;9.50;99.90
46400;DHT22;32104;50.838;4.388;2023-04-24T06:40:16;9.50;99.90
46400;DHT22;32104;50.838;4.388;2023-04-24T06:47:56;9.60;99.90
46400;DHT22;32104;50.838;4.388;2023-04-24T06:50:41;9.70;99.90
46400;DHT22;32104;50.838;4.388;2023-04-24T06:53:10;9.80;99.90
46400;DHT22;32104;50.838;4.388;2023-04-24T06:56:02;9.80;99.90
46400;DHT22;32104;50.838;4.388;2023-04-24T06:58:31;9.90;99.90
46400;DHT22;32104;50.838;4.388;2023-04-24T07:03:50;9.80;99.90
46400;DHT22;32104;50.838;4.388;2023-04-24T07:24:22;10.10;99.90
46400;DHT22;32104;50.838;4.388;2023-04-24T07:27:18;10.30;99.90
46400;DHT22;32104;50.838;4.388;2023-04-24T07:37:10;10.70;99.90
46400;DHT22;32104;50.838;4.388;2023-04-24T07:57:06;10.40;99.90
46400;DHT22;32104;50.838;4.388;2023-04-24T07:59:37;10.40;99.90
46400;DHT22;32104;50.838;4.388;2023-04-24T08:33:54;11.20;99.90
46400;DHT22;32104;50.838;4.388;2023-04-24T12:20:07;14.30;99.90
46400;DHT22;32104;50.838;4.388;2023-04-24T12:22:56;14.30;99.90
46400;DHT22;32104;50.838;4.388;2023-04-24T12:25:32;14.30;99.90
46400;DHT22;32104;50.838;4.388;2023-04-24T12:28:14;14.30;99.90
46400;DHT22;32104;50.838;4.388;2023-04-24T12:33:20;14.10;99.90
46400;DHT22;32104;50.838;4.388;2023-04-24T12:36:32;14.40;99.90
46400;DHT22;32104;50.838;4.388;2023-04-24T12:38:56;14.50;99.90
46400;DHT22;32104;50.838;4.388;2023-04-24T12:41:26;14.40;99.90
46400;DHT22;32104;50.838;4.388;2023-04-24T12:44:10;14.60;99.90
46400;DHT22;32104;50.838;4.388;2023-04-24T12:46:40;14.50;99.90
46400;DHT22;32104;50.838;4.388;2023-04-24T12:52:15;14.80;99.90
46400;DHT22;32104;50.838;4.388;2023-04-24T12:55:10;14.70;99.90
46400;DHT22;32104;50.838;4.388;2023-04-24T12:57:43;14.00;99.90
46400;DHT22;32104;50.838;4.388;2023-04-24T13:00:33;13.40;99.90
46400;DHT22;32104;50.838;4.388;2023-04-24T13:03:09;13.50;99.90
46400;DHT22;32104;50.838;4.388;2023-04-24T13:05:35;13.20;99.90
46400;DHT22;32104;50.838;4.388;2023-04-24T13:08:01;13.20;99.90
46400;DHT22;32104;50.838;4.388;2023-04-24T13:10:28;13.30;99.90
46400;DHT22;32104;50.838;4.388;2023-04-24T13:12:56;13.60;99.90
46400;DHT22;32104;50.838;4.388;2023-04-24T13:15:32;14.00;99.90
46400;DHT22;32104;50.838;4.388;2023-04-24T13:17:59;14.20;99.90
46400;DHT22;32104;50.838;4.388;2023-04-24T13:20:27;14.50;99.90
46400;DHT22;32104;50.838;4.388;2023-04-24T13:22:53;14.70;99.90
46400;DHT22;32104;50.838;4.388;2023-04-24T13:25:22;15.00;99.90
46400;DHT22;32104;50.838;4.388;2023-04-24T13:27:58;15.20;99.90
46400;DHT22;32104;50.838;4.388;2023-04-24T13:30:24;14.60;99.90
46400;DHT22;32104;50.838;4.388;2023-04-24T13:32:57;14.20;99.90
46400;DHT22;32104;50.838;4.388;2023-04-24T13:35:22;14.20;99.90
46400;DHT22;32104;50.838;4.388;2023-04-24T13:37:57;14.30;99.90
46400;DHT22;32104;50.838;4.388;2023-04-24T13:40:26;14.60;99.90
46400;DHT22;32104;50.838;4.388;2023-04-24T13:42:56;14.80;99.90
46400;DHT22;32104;50.838;4.388;2023-04-24T13:45:31;14.80;99.90
46400;DHT22;32104;50.838;4.388;2023-04-24T13:47:59;14.60;99.90
46400;DHT22;32104;50.838;4.388;2023-04-24T13:50:27;14.50;99.90
46400;DHT22;32104;50.838;4.388;2023-04-24T13:52:58;14.40;99.90
46400;DHT22;32104;50.838;4.388;2023-04-24T13:55:27;14.30;99.90
46400;DHT22;32104;50.838;4.388;2023-04-24T13:57:56;14.30;99.90
46400;DHT22;32104;50.838;4.388;2023-04-24T14:00:22;14.50;99.90
46400;DHT22;32104;50.838;4.388;2023-04-24T14:02:51;14.60;99.90
46400;DHT22;32104;50.838;4.388;2023-04-24T14:05:17;14.60;99.90
46400;DHT22;32104;50.838;4.388;2023-04-24T14:07:43;14.50;99.90
46400;DHT22;32104;50.838;4.388;2023-04-24T14:10:10;14.30;99.90
46400;DHT22;32104;50.838;4.388;2023-04-24T14:12:41;14.20;99.90
46400;DHT22;32104;50.838;4.388;2023-04-24T14:15:08;14.10;99.90
46400;DHT22;32104;50.838;4.388;2023-04-24T14:17:43;13.90;99.90
46400;DHT22;32104;50.838;4.388;2023-04-24T14:20:09;13.90;99.90
46400;DHT22;32104;50.838;4.388;2023-04-24T14:22:37;13.70;99.90
46400;DHT22;32104;50.838;4.388;2023-04-24T14:25:06;13.60;99.90
46400;DHT22;32104;50.838;4.388;2023-04-24T14:27:32;13.60;99.90
46400;DHT22;32104;50.838;4.388;2023-04-24T14:30:00;13.60;99.90
46400;DHT22;32104;50.838;4.388;2023-04-24T14:32:31;13.90;99.90
46400;DHT22;32104;50.838;4.388;2023-04-24T14:35:08;14.00;99.90
46400;DHT22;32104;50.838;4.388;2023-04-24T14:37:43;14.00;99.90
46400;DHT22;32104;50.838;4.388;2023-04-24T14:40:11;14.00;99.90
46400;DHT22;32104;50.838;4.388;2023-04-24T14:42:55;13.90;99.90
46400;DHT22;32104;50.838;4.388;2023-04-24T14:45:26;13.70;99.90
46400;DHT22;32104;50.838;4.388;2023-04-24T14:47:55;13.70;99.90
46400;DHT22;32104;50.838;4.388;2023-04-24T14:50:21;13.60;99.90
46400;DHT22;32104;50.838;4.388;2023-04-24T14:52:53;13.40;99.90
46400;DHT22;32104;50.838;4.388;2023-04-24T14:55:23;13.40;99.90
46400;DHT22;32104;50.838;4.388;2023-04-24T14:57:49;13.40;99.90
46400;DHT22;32104;50.838;4.388;2023-04-24T15:00:18;13.50;99.90
46400;DHT22;32104;50.838;4.388;2023-04-24T15:02:48;13.40;99.90
46400;DHT22;32104;50.838;4.388;2023-04-24T15:05:34;13.50;99.90
46400;DHT22;32104;50.838;4.388;2023-04-24T15:08:00;13.60;99.90
46400;DHT22;32104;50.838;4.388;2023-04-24T15:10:26;13.60;99.90
46400;DHT22;32104;50.838;4.388;2023-04-24T15:12:54;13.50;99.90
46400;DHT22;32104;50.838;4.388;2023-04-24T15:15:27;13.50;99.90
46400;DHT22;32104;50.838;4.388;2023-04-24T15:18:04;13.60;99.90
46400;DHT22;32104;50.838;4.388;2023-04-24T15:20:31;13.70;99.90
46400;DHT22;32104;50.838;4.388;2023-04-24T15:23:04;13.70;99.90
46400;DHT22;32104;50.838;4.388;2023-04-24T15:25:30;13.60;99.90
46400;DHT22;32104;50.838;4.388;2023-04-24T15:27:56;13.60;99.90
46400;DHT22;32104;50.838;4.388;2023-04-24T15:30:28;13.50;99.90
46400;DHT22;32104;50.838;4.388;2023-04-24T15:32:54;13.50;99.90
46400;DHT22;32104;50.838;4.388;2023-04-24T15:35:25;13.20;99.90
46400;DHT22;32104;50.838;4.388;2023-04-24T15:37:53;13.10;99.90
46400;DHT22;32104;50.838;4.388;2023-04-24T15:40:19;13.20;99.90
46400;DHT22;32104;50.838;4.388;2023-04-24T15:42:51;13.20;99.90
46400;DHT22;32104;50.838;4.388;2023-04-24T15:45:17;13.20;99.90
46400;DHT22;32104;50.838;4.388;2023-04-24T15:47:46;13.10;99.90
46400;DHT22;32104;50.838;4.388;2023-04-24T15:50:12;13.10;99.90
46400;DHT22;32104;50.838;4.388;2023-04-24T15:52:40;13.00;99.90
46400;DHT22;32104;50.838;4.388;2023-04-24T15:55:17;13.00;99.90
46400;DHT22;32104;50.838;4.388;2023-04-24T15:58:06;13.10;99.90
46400;DHT22;32104;50.838;4.388;2023-04-24T16:00:38;13.00;99.90
46400;DHT22;32104;50.838;4.388;2023-04-24T16:03:05;13.20;99.90
46400;DHT22;32104;50.838;4.388;2023-04-24T16:05:31;13.30;99.90
46400;DHT22;32104;50.838;4.388;2023-04-24T16:07:56;13.30;99.90
46400;DHT22;32104;50.838;4.388;2023-04-24T16:10:38;13.30;99.90
46400;DHT22;32104;50.838;4.388;2023-04-24T16:13:17;13.40;99.90
46400;DHT22;32104;50.838;4.388;2023-04-24T16:15:50;13.50;99.90
46400;DHT22;32104;50.838;4.388;2023-04-24T16:18:16;13.40;99.90
46400;DHT22;32104;50.838;4.388;2023-04-24T16:20:45;13.10;99.90
46400;DHT22;32104;50.838;4.388;2023-04-24T16:23:16;12.90;99.90
46400;DHT22;32104;50.838;4.388;2023-04-24T16:25:45;12.90;99.90
46400;DHT22;32104;50.838;4.388;2023-04-24T16:28:11;13.00;99.90
46400;DHT22;32104;50.838;4.388;2023-04-24T16:30:47;12.90;99.90
46400;DHT22;32104;50.838;4.388;2023-04-24T16:33:13;12.80;99.90
46400;DHT22;32104;50.838;4.388;2023-04-24T16:35:44;12.80;99.90
46400;DHT22;32104;50.838;4.388;2023-04-24T16:38:12;12.80;99.90
46400;DHT22;32104;50.838;4.388;2023-04-24T16:40:58;12.80;99.90
46400;DHT22;32104;50.838;4.388;2023-04-24T16:43:32;12.70;99.90
46400;DHT22;32104;50.838;4.388;2023-04-24T16:46:01;12.50;99.90
46400;DHT22;32104;50.838;4.388;2023-04-24T16:48:27;12.60;99.90
46400;DHT22;32104;50.838;4.388;2023-04-24T16:50:55;12.80;99.90
46400;DHT22;32104;50.838;4.388;2023-04-24T16:53:21;12.80;99.90
46400;DHT22;32104;50.838;4.388;2023-04-24T17:01:00;12.90;99.90
46400;DHT22;32104;50.838;4.388;2023-04-24T17:03:32;12.80;99.90
46400;DHT22;32104;50.838;4.388;2023-04-24T17:09:02;12.60;99.90
46400;DHT22;32104;50.838;4.388;2023-04-24T17:11:38;12.40;99.90
46400;DHT22;32104;50.838;4.388;2023-04-24T17:14:08;12.20;99.90
46400;DHT22;32104;50.838;4.388;2023-04-24T17:16:43;12.20;99.90
46400;DHT22;32104;50.838;4.388;2023-04-24T17:19:12;12.10;99.90
46400;DHT22;32104;50.838;4.388;2023-04-24T17:21:46;12.00;99.90
46400;DHT22;32104;50.838;4.388;2023-04-24T17:24:30;12.00;99.90
46400;DHT22;32104;50.838;4.388;2023-04-24T17:27:02;12.10;99.90
46400;DHT22;32104;50.838;4.388;2023-04-24T17:29:38;12.20;99.90
46400;DHT22;32104;50.838;4.388;2023-04-24T17:32:08;12.20;99.90
46400;DHT22;32104;50.838;4.388;2023-04-24T17:34:57;12.10;99.90
46400;DHT22;32104;50.838;4.388;2023-04-24T17:37:45;12.10;99.90
46400;DHT22;32104;50.838;4.388;2023-04-24T17:40:35;11.90;99.90
46400;DHT22;32104;50.838;4.388;2023-04-24T17:45:52;11.80;99.90
46400;DHT22;32104;50.838;4.388;2023-04-24T17:48:31;11.90;99.90
46400;DHT22;32104;50.838;4.388;2023-04-24T17:51:12;11.80;99.90
46400;DHT22;32104;50.838;4.388;2023-04-24T17:53:46;11.80;99.90
46400;DHT22;32104;50.838;4.388;2023-04-24T17:56:23;11.90;99.90
46400;DHT22;32104;50.838;4.388;2023-04-24T17:59:15;11.70;99.90
46400;DHT22;32104;50.838;4.388;2023-04-24T18:01:48;11.60;99.90
46400;DHT22;32104;50.838;4.388;2023-04-24T18:04:25;11.60;99.90
46400;DHT22;32104;50.838;4.388;2023-04-24T18:07:16;11.60;99.90
46400;DHT22;32104;50.838;4.388;2023-04-24T18:09:50;11.60;99.90
46400;DHT22;32104;50.838;4.388;2023-04-24T18:12:51;11.50;99.90
46400;DHT22;32104;50.838;4.388;2023-04-24T18:15:37;11.50;99.90
46400;DHT22;32104;50.838;4.388;2023-04-24T18:21:21;11.40;99.90
46400;DHT22;32104;50.838;4.388;2023-04-24T18:24:11;11.30;99.90
46400;DHT22;32104;50.838;4.388;2023-04-24T18:26:58;11.30;99.90
46400;DHT22;32104;50.838;4.388;2023-04-24T18:29:29;11.30;99.90
46400;DHT22;32104;50.838;4.388;2023-04-24T18:35:10;11.20;99.90
46400;DHT22;32104;50.838;4.388;2023-04-24T18:37:43;11.10;99.90
46400;DHT22;32104;50.838;4.388;2023-04-24T18:40:20;11.10;99.90
46400;DHT22;32104;50.838;4.388;2023-04-24T18:42:55;11.20;99.90
46400;DHT22;32104;50.838;4.388;2023-04-24T18:45:29;11.30;99.90
46400;DHT22;32104;50.838;4.388;2023-04-24T18:47:55;11.30;99.90
46400;DHT22;32104;50.838;4.388;2023-04-24T18:50:21;11.20;99.90
46400;DHT22;32104;50.838;4.388;2023-04-24T18:53:08;11.20;99.90
46400;DHT22;32104;50.838;4.388;2023-04-24T18:55:56;11.20;99.90
46400;DHT22;32104;50.838;4.388;2023-04-24T18:58:24;11.10;99.90
46400;DHT22;32104;50.838;4.388;2023-04-24T19:01:20;11.10;99.90
46400;DHT22;32104;50.838;4.388;2023-04-24T19:03:50;11.00;99.90
46400;DHT22;32104;50.838;4.388;2023-04-24T19:06:20;11.00;99.90
46400;DHT22;32104;50.838;4.388;2023-04-24T19:09:08;10.80;99.90
46400;DHT22;32104;50.838;4.388;2023-04-24T19:11:36;10.80;99.90
46400;DHT22;32104;50.838;4.388;2023-04-24T19:14:06;10.80;99.90
46400;DHT22;32104;50.838;4.388;2023-04-24T19:16:32;10.70;99.90
46400;DHT22;32104;50.838;4.388;2023-04-24T19:19:04;10.50;99.90
46400;DHT22;32104;50.838;4.388;2023-04-24T19:24:21;10.30;99.90
46400;DHT22;32104;50.838;4.388;2023-04-24T19:26:47;10.30;99.90
46400;DHT22;32104;50.838;4.388;2023-04-24T19:29:15;10.40;99.90
46400;DHT22;32104;50.838;4.388;2023-04-24T19:31:52;10.40;99.90
46400;DHT22;32104;50.838;4.388;2023-04-24T19:34:25;10.50;99.90
46400;DHT22;32104;50.838;4.388;2023-04-24T19:37:01;10.50;99.90
46400;DHT22;32104;50.838;4.388;2023-04-24T19:39:37;10.60;99.90
46400;DHT22;32104;50.838;4.388;2023-04-24T19:42:06;10.50;99.90
46400;DHT22;32104;50.838;4.388;2023-04-24T19:44:35;10.50;99.90
46400;DHT22;32104;50.838;4.388;2023-04-24T19:47:24;10.60;99.90
46400;DHT22;32104;50.838;4.388;2023-04-24T19:49:56;10.60;99.90
46400;DHT22;32104;50.838;4.388;2023-04-24T19:52:24;10.60;99.90
46400;DHT22;32104;50.838;4.388;2023-04-24T19:54:51;10.50;99.90
46400;DHT22;32104;50.838;4.388;2023-04-24T19:57:17;10.60;99.90
46400;DHT22;32104;50.838;4.388;2023-04-24T19:59:43;10.50;99.90
46400;DHT22;32104;50.838;4.388;2023-04-24T20:02:09;10.60;99.90
46400;DHT22;32104;50.838;4.388;2023-04-24T20:04:36;10.60;99.90
46400;DHT22;32104;50.838;4.388;2023-04-24T20:07:06;10.70;99.90
46400;DHT22;32104;50.838;4.388;2023-04-24T20:09:35;10.70;99.90
46400;DHT22;32104;50.838;4.388;2023-04-24T20:12:01;10.60;99.90
46400;DHT22;32104;50.838;4.388;2023-04-24T20:14:28;10.50;99.90
46400;DHT22;32104;50.838;4.388;2023-04-24T20:16:53;10.50;99.90
46400;DHT22;32104;50.838;4.388;2023-04-24T20:19:24;10.50;99.90
46400;DHT22;32104;50.838;4.388;2023-04-24T20:21:50;10.50;99.90
46400;DHT22;32104;50.838;4.388;2023-04-24T20:24:18;10.50;99.90
46400;DHT22;32104;50.838;4.388;2023-04-24T20:27:06;10.40;99.90
46400;DHT22;32104;50.838;4.388;2023-04-24T20:29:40;10.40;99.90
46400;DHT22;32104;50.838;4.388;2023-04-24T20:32:28;10.50;99.90
46400;DHT22;32104;50.838;4.388;2023-04-24T20:34:59;10.50;99.90
46400;DHT22;32104;50.838;4.388;2023-04-24T20:37:25;10.40;99.90
46400;DHT22;32104;50.838;4.388;2023-04-24T20:39:53;10.20;99.90
46400;DHT22;32104;50.838;4.388;2023-04-24T20:42:21;10.20;99.90
46400;DHT22;32104;50.838;4.388;2023-04-24T20:44:49;10.20;99.90
46400;DHT22;32104;50.838;4.388;2023-04-24T20:47:15;10.20;99.90
46400;DHT22;32104;50.838;4.388;2023-04-24T20:49:46;10.20;99.90
46400;DHT22;32104;50.838;4.388;2023-04-24T20:52:14;10.10;99.90
46400;DHT22;32104;50.838;4.388;2023-04-24T20:54:42;10.00;99.90
46400;DHT22;32104;50.838;4.388;2023-04-24T20:57:08;9.90;99.90
46400;DHT22;32104;50.838;4.388;2023-04-24T20:59:34;10.00;99.90
46400;DHT22;32104;50.838;4.388;2023-04-24T21:02:02;10.20;99.90
46400;DHT22;32104;50.838;4.388;2023-04-24T21:04:32;10.30;99.90
46400;DHT22;32104;50.838;4.388;2023-04-24T21:07:05;10.30;99.90
46400;DHT22;32104;50.838;4.388;2023-04-24T21:09:33;10.30;99.90
46400;DHT22;32104;50.838;4.388;2023-04-24T21:12:01;10.30;99.90
46400;DHT22;32104;50.838;4.388;2023-04-24T21:14:30;10.20;99.90
46400;DHT22;32104;50.838;4.388;2023-04-24T21:16:55;10.20;99.90
46400;DHT22;32104;50.838;4.388;2023-04-24T21:19:25;10.30;99.90
46400;DHT22;32104;50.838;4.388;2023-04-24T21:21:51;10.30;99.90
46400;DHT22;32104;50.838;4.388;2023-04-24T21:24:21;10.20;99.90
46400;DHT22;32104;50.838;4.388;2023-04-24T21:26:47;10.20;99.90
46400;DHT22;32104;50.838;4.388;2023-04-24T21:29:13;10.20;99.90
46400;DHT22;32104;50.838;4.388;2023-04-24T21:31:40;10.20;99.90
46400;DHT22;32104;50.838;4.388;2023-04-24T21:34:06;10.30;99.90